sensor_id;sensor_type;location;lat;lon;timestamp;pressure;altitude;pressure_sealevel;temperature;humidity
62055;BME280;48653;51.742;-1.256;2023-04-06T00:01:49;100791.79;;;10.28;57.80
62055;BME280;48653;51.742;-1.256;2023-04-06T00:04:14;100789.03;;;10.69;56.29
62055;BME280;48653;51.742;-1.256;2023-04-06T00:06:39;100787.61;;;10.56;55.73
62055;BME280;48653;51.742;-1.256;2023-04-06T00:09:05;100782.02;;;10.23;56.75
62055;BME280;48653;51.742;-1.256;2023-04-06T00:11:30;100780.25;;;11.13;55.36
62055;BME280;48653;51.742;-1.256;2023-04-06T00:13:55;100775.24;;;10.58;56.89
62055;BME280;48653;51.742;-1.256;2023-04-06T00:16:21;100772.41;;;10.33;57.04
62055;BME280;48653;51.742;-1.256;2023-04-06T00:18:46;100772.21;;;9.99;57.89
62055;BME280;48653;51.742;-1.256;2023-04-06T00:21:11;100766.37;;;9.81;57.36
62055;BME280;48653;51.742;-1.256;2023-04-06T00:23:36;100765.79;;;10.26;56.26
62055;BME280;48653;51.742;-1.256;2023-04-06T00:26:01;100762.07;;;10.28;57.11
62055;BME280;48653;51.742;-1.256;2023-04-06T00:28:27;100761.63;;;10.14;57.34
62055;BME280;48653;51.742;-1.256;2023-04-06T00:30:52;100758.79;;;10.37;57.44
62055;BME280;48653;51.742;-1.256;2023-04-06T00:33:17;100755.65;;;10.32;56.32
62055;BME280;48653;51.742;-1.256;2023-04-06T00:35:42;100753.77;;;10.01;57.54
62055;BME280;48653;51.742;-1.256;2023-04-06T00:38:07;100748.17;;;10.92;55.72
62055;BME280;48653;51.742;-1.256;2023-04-06T00:40:33;100751.13;;;9.52;59.57
62055;BME280;48653;51.742;-1.256;2023-04-06T00:42:58;100747.37;;;9.91;59.50
62055;BME280;48653;51.742;-1.256;2023-04-06T00:45:23;100745.24;;;10.13;59.64
62055;BME280;48653;51.742;-1.256;2023-04-06T00:47:48;100740.71;;;9.67;60.24
62055;BME280;48653;51.742;-1.256;2023-04-06T00:50:13;100733.53;;;10.38;58.44
62055;BME280;48653;51.742;-1.256;2023-04-06T00:52:39;100730.87;;;10.62;57.67
62055;BME280;48653;51.742;-1.256;2023-04-06T00:55:05;100728.46;;;10.40;58.38
62055;BME280;48653;51.742;-1.256;2023-04-06T00:57:29;100724.77;;;10.20;58.06
62055;BME280;48653;51.742;-1.256;2023-04-06T00:59:54;100720.18;;;9.23;61.56
62055;BME280;48653;51.742;-1.256;2023-04-06T01:02:19;100718.09;;;9.81;59.55
62055;BME280;48653;51.742;-1.256;2023-04-06T01:04:45;100717.10;;;10.45;58.46
62055;BME280;48653;51.742;-1.256;2023-04-06T01:07:10;100718.28;;;10.23;58.69
62055;BME280;48653;51.742;-1.256;2023-04-06T01:09:35;100711.71;;;10.07;58.96
62055;BME280;48653;51.742;-1.256;2023-04-06T01:12:00;100711.23;;;10.88;57.44
62055;BME280;48653;51.742;-1.256;2023-04-06T01:14:26;100709.20;;;10.16;58.67
62055;BME280;48653;51.742;-1.256;2023-04-06T01:16:51;100705.36;;;10.55;57.69
62055;BME280;48653;51.742;-1.256;2023-04-06T01:19:16;100699.84;;;10.92;56.97
62055;BME280;48653;51.742;-1.256;2023-04-06T01:21:41;100699.87;;;10.62;56.99
62055;BME280;48653;51.742;-1.256;2023-04-06T01:24:08;100698.08;;;11.31;55.83
62055;BME280;48653;51.742;-1.256;2023-04-06T01:26:32;100694.57;;;11.10;56.47
62055;BME280;48653;51.742;-1.256;2023-04-06T01:28:57;100691.47;;;10.97;56.24
62055;BME280;48653;51.742;-1.256;2023-04-06T01:31:23;100686.97;;;10.98;56.22
62055;BME280;48653;51.742;-1.256;2023-04-06T01:33:48;100687.94;;;11.03;57.03
62055;BME280;48653;51.742;-1.256;2023-04-06T01:36:13;100684.11;;;10.78;57.51
62055;BME280;48653;51.742;-1.256;2023-04-06T01:38:38;100678.32;;;11.28;55.81
62055;BME280;48653;51.742;-1.256;2023-04-06T01:41:03;100676.48;;;10.49;57.60
62055;BME280;48653;51.742;-1.256;2023-04-06T01:43:28;100675.70;;;10.46;58.65
62055;BME280;48653;51.742;-1.256;2023-04-06T01:45:53;100672.72;;;10.37;58.58
62055;BME280;48653;51.742;-1.256;2023-04-06T01:48:19;100667.10;;;9.87;59.53
62055;BME280;48653;51.742;-1.256;2023-04-06T01:50:45;100663.40;;;10.59;58.37
62055;BME280;48653;51.742;-1.256;2023-04-06T01:53:10;100655.77;;;10.80;57.24
62055;BME280;48653;51.742;-1.256;2023-04-06T01:55:35;100652.33;;;10.88;57.11
62055;BME280;48653;51.742;-1.256;2023-04-06T01:58:00;100647.29;;;10.78;58.03
62055;BME280;48653;51.742;-1.256;2023-04-06T02:00:26;100647.00;;;10.48;58.16
62055;BME280;48653;51.742;-1.256;2023-04-06T02:02:51;100646.72;;;10.48;59.23
62055;BME280;48653;51.742;-1.256;2023-04-06T02:05:16;100641.18;;;11.02;57.75
62055;BME280;48653;51.742;-1.256;2023-04-06T02:07:41;100638.04;;;11.18;56.89
62055;BME280;48653;51.742;-1.256;2023-04-06T02:10:11;100634.28;;;11.40;56.02
62055;BME280;48653;51.742;-1.256;2023-04-06T02:12:32;100632.11;;;11.41;56.30
62055;BME280;48653;51.742;-1.256;2023-04-06T02:14:57;100629.95;;;11.26;57.98
62055;BME280;48653;51.742;-1.256;2023-04-06T02:17:22;100632.20;;;10.97;57.20
62055;BME280;48653;51.742;-1.256;2023-04-06T02:19:48;100629.95;;;10.73;57.29
62055;BME280;48653;51.742;-1.256;2023-04-06T02:22:13;100632.34;;;11.63;56.45
62055;BME280;48653;51.742;-1.256;2023-04-06T02:24:38;100633.40;;;11.22;56.71
62055;BME280;48653;51.742;-1.256;2023-04-06T02:27:03;100631.95;;;11.40;57.71
62055;BME280;48653;51.742;-1.256;2023-04-06T02:29:29;100626.40;;;11.04;57.80
62055;BME280;48653;51.742;-1.256;2023-04-06T02:31:54;100625.91;;;11.38;56.85
62055;BME280;48653;51.742;-1.256;2023-04-06T02:34:19;100624.97;;;11.10;57.52
62055;BME280;48653;51.742;-1.256;2023-04-06T02:36:45;100623.37;;;11.08;57.78
62055;BME280;48653;51.742;-1.256;2023-04-06T02:39:10;100619.76;;;11.37;56.89
62055;BME280;48653;51.742;-1.256;2023-04-06T02:41:35;100619.85;;;10.17;60.17
62055;BME280;48653;51.742;-1.256;2023-04-06T02:44:00;100612.77;;;10.73;59.32
62055;BME280;48653;51.742;-1.256;2023-04-06T02:46:26;100613.38;;;11.10;57.58
62055;BME280;48653;51.742;-1.256;2023-04-06T02:48:51;100612.64;;;11.70;56.07
62055;BME280;48653;51.742;-1.256;2023-04-06T02:51:16;100615.28;;;10.59;59.01
62055;BME280;48653;51.742;-1.256;2023-04-06T02:53:41;100611.72;;;10.50;59.98
62055;BME280;48653;51.742;-1.256;2023-04-06T02:56:07;100610.01;;;11.32;57.85
62055;BME280;48653;51.742;-1.256;2023-04-06T02:58:32;100602.52;;;11.28;57.98
62055;BME280;48653;51.742;-1.256;2023-04-06T03:00:58;100601.52;;;11.10;57.71
62055;BME280;48653;51.742;-1.256;2023-04-06T03:03:24;100596.53;;;10.39;59.56
62055;BME280;48653;51.742;-1.256;2023-04-06T03:05:49;100594.72;;;10.94;58.66
62055;BME280;48653;51.742;-1.256;2023-04-06T03:08:15;100592.64;;;10.95;57.44
62055;BME280;48653;51.742;-1.256;2023-04-06T03:10:40;100589.93;;;10.75;59.64
62055;BME280;48653;51.742;-1.256;2023-04-06T03:13:06;100586.56;;;10.68;60.00
62055;BME280;48653;51.742;-1.256;2023-04-06T03:15:32;100584.70;;;11.21;58.45
62055;BME280;48653;51.742;-1.256;2023-04-06T03:17:58;100585.22;;;11.00;58.61
62055;BME280;48653;51.742;-1.256;2023-04-06T03:20:23;100585.41;;;10.45;59.99
62055;BME280;48653;51.742;-1.256;2023-04-06T03:22:48;100587.14;;;9.90;62.21
62055;BME280;48653;51.742;-1.256;2023-04-06T03:25:14;100583.12;;;10.11;62.22
62055;BME280;48653;51.742;-1.256;2023-04-06T03:27:40;100582.02;;;10.56;60.45
62055;BME280;48653;51.742;-1.256;2023-04-06T03:30:07;100579.59;;;10.65;59.62
62055;BME280;48653;51.742;-1.256;2023-04-06T03:32:30;100578.51;;;10.88;59.63
62055;BME280;48653;51.742;-1.256;2023-04-06T03:34:55;100574.44;;;11.04;59.53
62055;BME280;48653;51.742;-1.256;2023-04-06T03:37:20;100572.03;;;10.62;59.52
62055;BME280;48653;51.742;-1.256;2023-04-06T03:39:46;100567.53;;;10.99;59.68
62055;BME280;48653;51.742;-1.256;2023-04-06T03:42:11;100555.91;;;11.03;58.72
62055;BME280;48653;51.742;-1.256;2023-04-06T03:44:37;100557.12;;;10.55;60.52
62055;BME280;48653;51.742;-1.256;2023-04-06T03:47:02;100552.67;;;10.51;59.84
62055;BME280;48653;51.742;-1.256;2023-04-06T03:49:27;100548.06;;;10.50;59.37
62055;BME280;48653;51.742;-1.256;2023-04-06T03:51:53;100540.33;;;10.75;58.92
62055;BME280;48653;51.742;-1.256;2023-04-06T03:54:19;100538.47;;;10.96;57.93
62055;BME280;48653;51.742;-1.256;2023-04-06T03:56:43;100539.70;;;11.11;57.69
62055;BME280;48653;51.742;-1.256;2023-04-06T03:59:09;100538.24;;;11.58;56.12
62055;BME280;48653;51.742;-1.256;2023-04-06T04:01:35;100536.87;;;11.25;57.36
62055;BME280;48653;51.742;-1.256;2023-04-06T04:04:00;100534.46;;;11.77;56.08
62055;BME280;48653;51.742;-1.256;2023-04-06T04:06:25;100532.88;;;11.76;56.12
62055;BME280;48653;51.742;-1.256;2023-04-06T04:08:50;100535.11;;;11.71;56.46
62055;BME280;48653;51.742;-1.256;2023-04-06T04:11:15;100533.55;;;11.32;57.22
62055;BME280;48653;51.742;-1.256;2023-04-06T04:13:40;100532.52;;;11.88;55.57
62055;BME280;48653;51.742;-1.256;2023-04-06T04:16:06;100532.24;;;12.26;55.54
62055;BME280;48653;51.742;-1.256;2023-04-06T04:18:31;100525.64;;;11.29;57.14
62055;BME280;48653;51.742;-1.256;2023-04-06T04:20:58;100518.97;;;11.27;57.54
62055;BME280;48653;51.742;-1.256;2023-04-06T04:23:21;100520.58;;;11.40;56.70
62055;BME280;48653;51.742;-1.256;2023-04-06T04:25:47;100514.61;;;11.36;57.18
62055;BME280;48653;51.742;-1.256;2023-04-06T04:28:12;100514.61;;;11.39;56.09
62055;BME280;48653;51.742;-1.256;2023-04-06T04:30:37;100514.23;;;11.24;57.00
62055;BME280;48653;51.742;-1.256;2023-04-06T04:33:03;100517.14;;;11.52;56.94
62055;BME280;48653;51.742;-1.256;2023-04-06T04:35:28;100516.82;;;11.12;57.00
62055;BME280;48653;51.742;-1.256;2023-04-06T04:37:53;100517.67;;;11.23;57.36
62055;BME280;48653;51.742;-1.256;2023-04-06T04:40:19;100519.77;;;10.72;58.57
62055;BME280;48653;51.742;-1.256;2023-04-06T04:42:44;100515.89;;;11.27;57.59
62055;BME280;48653;51.742;-1.256;2023-04-06T04:45:10;100511.41;;;11.65;56.71
62055;BME280;48653;51.742;-1.256;2023-04-06T04:47:34;100504.97;;;11.51;56.80
62055;BME280;48653;51.742;-1.256;2023-04-06T04:49:59;100498.64;;;11.72;55.62
62055;BME280;48653;51.742;-1.256;2023-04-06T04:52:25;100505.15;;;11.31;57.22
62055;BME280;48653;51.742;-1.256;2023-04-06T04:54:50;100510.05;;;12.06;55.69
62055;BME280;48653;51.742;-1.256;2023-04-06T04:57:15;100504.15;;;11.66;55.99
62055;BME280;48653;51.742;-1.256;2023-04-06T04:59:40;100504.20;;;11.65;55.51
62055;BME280;48653;51.742;-1.256;2023-04-06T05:02:05;100494.09;;;11.73;55.20
62055;BME280;48653;51.742;-1.256;2023-04-06T05:04:30;100506.07;;;11.68;55.45
62055;BME280;48653;51.742;-1.256;2023-04-06T05:07:04;100514.55;;;11.50;56.45
62055;BME280;48653;51.742;-1.256;2023-04-06T05:09:20;100520.79;;;11.37;56.52
62055;BME280;48653;51.742;-1.256;2023-04-06T05:11:45;100527.52;;;11.30;56.61
62055;BME280;48653;51.742;-1.256;2023-04-06T05:14:10;100526.35;;;11.82;56.38
62055;BME280;48653;51.742;-1.256;2023-04-06T05:16:36;100524.54;;;11.87;54.79
62055;BME280;48653;51.742;-1.256;2023-04-06T05:19:01;100530.48;;;11.74;56.28
62055;BME280;48653;51.742;-1.256;2023-04-06T05:21:26;100529.11;;;11.28;57.61
62055;BME280;48653;51.742;-1.256;2023-04-06T05:23:51;100529.34;;;10.88;57.83
62055;BME280;48653;51.742;-1.256;2023-04-06T05:26:16;100530.01;;;9.98;60.68
62055;BME280;48653;51.742;-1.256;2023-04-06T05:28:41;100527.26;;;10.58;59.11
62055;BME280;48653;51.742;-1.256;2023-04-06T05:31:06;100526.81;;;10.56;59.12
62055;BME280;48653;51.742;-1.256;2023-04-06T05:33:32;100520.95;;;11.08;57.78
62055;BME280;48653;51.742;-1.256;2023-04-06T05:35:58;100517.56;;;11.22;57.13
62055;BME280;48653;51.742;-1.256;2023-04-06T05:38:23;100512.70;;;11.20;57.01
62055;BME280;48653;51.742;-1.256;2023-04-06T05:40:49;100513.69;;;10.27;58.74
62055;BME280;48653;51.742;-1.256;2023-04-06T05:43:14;100512.98;;;11.36;57.18
62055;BME280;48653;51.742;-1.256;2023-04-06T05:45:40;100510.82;;;10.84;58.81
62055;BME280;48653;51.742;-1.256;2023-04-06T05:48:06;100507.89;;;11.25;57.71
62055;BME280;48653;51.742;-1.256;2023-04-06T05:50:31;100510.40;;;10.23;60.31
62055;BME280;48653;51.742;-1.256;2023-04-06T05:52:56;100515.15;;;9.58;61.58
62055;BME280;48653;51.742;-1.256;2023-04-06T05:55:22;100511.61;;;10.38;60.64
62055;BME280;48653;51.742;-1.256;2023-04-06T05:57:47;100504.19;;;11.06;58.14
62055;BME280;48653;51.742;-1.256;2023-04-06T06:00:13;100505.31;;;10.70;58.25
62055;BME280;48653;51.742;-1.256;2023-04-06T06:02:38;100506.71;;;10.73;56.82
62055;BME280;48653;51.742;-1.256;2023-04-06T06:05:03;100513.79;;;10.80;57.26
62055;BME280;48653;51.742;-1.256;2023-04-06T06:07:28;100519.46;;;10.40;58.64
62055;BME280;48653;51.742;-1.256;2023-04-06T06:09:56;100525.35;;;10.61;58.24
62055;BME280;48653;51.742;-1.256;2023-04-06T06:12:19;100528.38;;;10.48;58.74
62055;BME280;48653;51.742;-1.256;2023-04-06T06:14:44;100524.32;;;10.94;57.67
62055;BME280;48653;51.742;-1.256;2023-04-06T06:17:09;100534.77;;;10.90;57.77
62055;BME280;48653;51.742;-1.256;2023-04-06T06:19:35;100529.54;;;10.23;58.99
62055;BME280;48653;51.742;-1.256;2023-04-06T06:22:00;100521.22;;;10.28;59.30
62055;BME280;48653;51.742;-1.256;2023-04-06T06:24:25;100523.87;;;10.46;57.78
62055;BME280;48653;51.742;-1.256;2023-04-06T06:26:51;100521.91;;;10.88;56.70
62055;BME280;48653;51.742;-1.256;2023-04-06T06:29:16;100524.28;;;9.92;58.02
62055;BME280;48653;51.742;-1.256;2023-04-06T06:31:42;100529.79;;;10.57;57.49
62055;BME280;48653;51.742;-1.256;2023-04-06T06:36:32;100527.31;;;10.45;56.81
62055;BME280;48653;51.742;-1.256;2023-04-06T06:38:58;100532.06;;;10.36;58.01
62055;BME280;48653;51.742;-1.256;2023-04-06T06:41:23;100534.21;;;10.40;57.93
62055;BME280;48653;51.742;-1.256;2023-04-06T06:43:49;100536.92;;;10.20;59.38
62055;BME280;48653;51.742;-1.256;2023-04-06T06:46:14;100535.86;;;10.39;58.61
62055;BME280;48653;51.742;-1.256;2023-04-06T06:48:39;100537.80;;;9.43;60.97
62055;BME280;48653;51.742;-1.256;2023-04-06T06:51:04;100541.15;;;9.93;61.47
62055;BME280;48653;51.742;-1.256;2023-04-06T06:53:29;100546.27;;;9.61;61.93
62055;BME280;48653;51.742;-1.256;2023-04-06T06:55:55;100544.39;;;9.70;60.79
62055;BME280;48653;51.742;-1.256;2023-04-06T06:58:20;100548.07;;;9.85;60.86
62055;BME280;48653;51.742;-1.256;2023-04-06T07:00:45;100550.09;;;9.83;60.58
62055;BME280;48653;51.742;-1.256;2023-04-06T07:03:10;100553.15;;;10.08;60.04
62055;BME280;48653;51.742;-1.256;2023-04-06T07:05:36;100559.00;;;9.78;60.89
62055;BME280;48653;51.742;-1.256;2023-04-06T07:08:00;100563.53;;;9.92;60.66
62055;BME280;48653;51.742;-1.256;2023-04-06T07:10:26;100563.41;;;9.81;60.72
62055;BME280;48653;51.742;-1.256;2023-04-06T07:12:51;100562.52;;;10.10;60.24
62055;BME280;48653;51.742;-1.256;2023-04-06T07:15:16;100560.82;;;10.09;60.50
62055;BME280;48653;51.742;-1.256;2023-04-06T07:17:41;100566.42;;;9.53;61.34
62055;BME280;48653;51.742;-1.256;2023-04-06T07:20:07;100565.19;;;9.53;61.68
62055;BME280;48653;51.742;-1.256;2023-04-06T07:22:33;100562.97;;;9.55;62.17
62055;BME280;48653;51.742;-1.256;2023-04-06T07:24:58;100566.01;;;8.91;63.73
62055;BME280;48653;51.742;-1.256;2023-04-06T07:27:22;100564.31;;;9.41;62.25
62055;BME280;48653;51.742;-1.256;2023-04-06T07:29:48;100571.98;;;9.57;62.35
62055;BME280;48653;51.742;-1.256;2023-04-06T07:32:14;100570.52;;;9.67;61.24
62055;BME280;48653;51.742;-1.256;2023-04-06T07:34:39;100572.37;;;10.21;60.39
62055;BME280;48653;51.742;-1.256;2023-04-06T07:37:04;100576.67;;;10.36;59.87
62055;BME280;48653;51.742;-1.256;2023-04-06T07:39:29;100582.54;;;9.59;60.86
62055;BME280;48653;51.742;-1.256;2023-04-06T07:41:54;100579.59;;;9.91;60.65
62055;BME280;48653;51.742;-1.256;2023-04-06T07:44:19;100578.70;;;9.85;60.85
62055;BME280;48653;51.742;-1.256;2023-04-06T07:46:44;100577.79;;;9.75;61.80
62055;BME280;48653;51.742;-1.256;2023-04-06T07:49:10;100568.26;;;10.25;61.11
62055;BME280;48653;51.742;-1.256;2023-04-06T07:51:36;100569.36;;;10.36;61.28
62055;BME280;48653;51.742;-1.256;2023-04-06T07:54:00;100562.95;;;10.57;60.42
62055;BME280;48653;51.742;-1.256;2023-04-06T07:56:25;100565.86;;;10.28;60.67
62055;BME280;48653;51.742;-1.256;2023-04-06T07:58:51;100567.83;;;10.72;59.60
62055;BME280;48653;51.742;-1.256;2023-04-06T08:01:16;100565.44;;;10.45;60.59
62055;BME280;48653;51.742;-1.256;2023-04-06T08:03:41;100565.30;;;10.21;60.31
62055;BME280;48653;51.742;-1.256;2023-04-06T08:06:07;100568.25;;;10.75;59.58
62055;BME280;48653;51.742;-1.256;2023-04-06T08:08:32;100570.85;;;10.65;59.19
62055;BME280;48653;51.742;-1.256;2023-04-06T08:10:58;100576.88;;;10.94;58.58
62055;BME280;48653;51.742;-1.256;2023-04-06T08:13:23;100578.99;;;11.11;58.26
62055;BME280;48653;51.742;-1.256;2023-04-06T08:15:49;100578.82;;;10.63;58.56
62055;BME280;48653;51.742;-1.256;2023-04-06T08:18:14;100579.69;;;10.43;59.22
62055;BME280;48653;51.742;-1.256;2023-04-06T08:20:39;100582.02;;;11.14;58.75
62055;BME280;48653;51.742;-1.256;2023-04-06T08:23:05;100577.42;;;11.55;57.98
62055;BME280;48653;51.742;-1.256;2023-04-06T08:25:30;100573.60;;;11.75;56.76
62055;BME280;48653;51.742;-1.256;2023-04-06T08:27:55;100575.18;;;11.70;56.85
62055;BME280;48653;51.742;-1.256;2023-04-06T08:30:21;100573.95;;;11.17;56.22
62055;BME280;48653;51.742;-1.256;2023-04-06T08:32:46;100574.30;;;11.48;55.86
62055;BME280;48653;51.742;-1.256;2023-04-06T08:35:12;100581.57;;;11.14;56.32
62055;BME280;48653;51.742;-1.256;2023-04-06T08:37:36;100582.25;;;10.78;56.88
62055;BME280;48653;51.742;-1.256;2023-04-06T08:40:02;100584.85;;;11.45;56.70
62055;BME280;48653;51.742;-1.256;2023-04-06T08:42:28;100581.43;;;11.49;55.91
62055;BME280;48653;51.742;-1.256;2023-04-06T08:44:53;100583.66;;;11.16;56.78
62055;BME280;48653;51.742;-1.256;2023-04-06T08:47:19;100584.23;;;11.34;55.48
62055;BME280;48653;51.742;-1.256;2023-04-06T08:49:43;100585.07;;;11.35;55.08
62055;BME280;48653;51.742;-1.256;2023-04-06T08:52:08;100585.71;;;11.50;54.65
62055;BME280;48653;51.742;-1.256;2023-04-06T08:54:32;100593.08;;;11.35;55.55
62055;BME280;48653;51.742;-1.256;2023-04-06T08:56:58;100592.70;;;11.27;55.62
62055;BME280;48653;51.742;-1.256;2023-04-06T08:59:23;100601.03;;;11.60;54.78
62055;BME280;48653;51.742;-1.256;2023-04-06T09:01:48;100601.25;;;12.68;52.86
62055;BME280;48653;51.742;-1.256;2023-04-06T09:04:13;100604.35;;;11.65;53.95
62055;BME280;48653;51.742;-1.256;2023-04-06T09:06:38;100603.82;;;12.13;53.13
62055;BME280;48653;51.742;-1.256;2023-04-06T09:09:03;100607.02;;;11.94;52.60
62055;BME280;48653;51.742;-1.256;2023-04-06T09:11:28;100612.94;;;11.68;52.98
62055;BME280;48653;51.742;-1.256;2023-04-06T09:13:55;100618.84;;;12.23;52.83
62055;BME280;48653;51.742;-1.256;2023-04-06T09:16:19;100616.00;;;12.56;52.71
62055;BME280;48653;51.742;-1.256;2023-04-06T09:18:44;100619.85;;;12.39;52.73
62055;BME280;48653;51.742;-1.256;2023-04-06T09:21:10;100617.75;;;12.12;53.54
62055;BME280;48653;51.742;-1.256;2023-04-06T09:23:34;100622.91;;;11.98;52.54
62055;BME280;48653;51.742;-1.256;2023-04-06T09:26:07;100620.44;;;12.05;52.49
62055;BME280;48653;51.742;-1.256;2023-04-06T09:28:24;100617.86;;;11.92;52.89
62055;BME280;48653;51.742;-1.256;2023-04-06T09:30:49;100613.10;;;11.34;53.71
62055;BME280;48653;51.742;-1.256;2023-04-06T09:33:22;100616.13;;;11.64;53.37
62055;BME280;48653;51.742;-1.256;2023-04-06T09:35:40;100620.47;;;12.08;53.33
62055;BME280;48653;51.742;-1.256;2023-04-06T09:38:10;100623.69;;;13.01;50.83
62055;BME280;48653;51.742;-1.256;2023-04-06T09:40:30;100624.57;;;13.41;49.42
62055;BME280;48653;51.742;-1.256;2023-04-06T09:45:20;100621.21;;;12.21;50.53
62055;BME280;48653;51.742;-1.256;2023-04-06T09:47:45;100625.02;;;12.86;49.40
62055;BME280;48653;51.742;-1.256;2023-04-06T09:50:11;100627.00;;;13.42;48.50
62055;BME280;48653;51.742;-1.256;2023-04-06T09:52:39;100626.48;;;12.79;49.55
62055;BME280;48653;51.742;-1.256;2023-04-06T09:55:03;100626.28;;;13.73;47.64
62055;BME280;48653;51.742;-1.256;2023-04-06T09:57:28;100631.40;;;13.46;46.99
62055;BME280;48653;51.742;-1.256;2023-04-06T09:59:56;100631.67;;;13.60;46.89
62055;BME280;48653;51.742;-1.256;2023-04-06T10:02:26;100629.11;;;14.45;45.98
62055;BME280;48653;51.742;-1.256;2023-04-06T10:04:43;100630.10;;;14.03;45.38
62055;BME280;48653;51.742;-1.256;2023-04-06T10:07:11;100627.68;;;13.54;47.20
62055;BME280;48653;51.742;-1.256;2023-04-06T10:09:31;100628.72;;;14.24;45.17
62055;BME280;48653;51.742;-1.256;2023-04-06T10:11:59;100635.89;;;14.12;45.44
62055;BME280;48653;51.742;-1.256;2023-04-06T10:14:22;100638.26;;;13.53;45.34
62055;BME280;48653;51.742;-1.256;2023-04-06T10:16:48;100644.14;;;13.79;45.96
62055;BME280;48653;51.742;-1.256;2023-04-06T10:19:14;100638.94;;;14.45;44.42
62055;BME280;48653;51.742;-1.256;2023-04-06T10:21:37;100640.56;;;14.52;44.50
62055;BME280;48653;51.742;-1.256;2023-04-06T10:24:06;100639.02;;;14.28;45.09
62055;BME280;48653;51.742;-1.256;2023-04-06T10:26:26;100636.48;;;14.26;43.92
62055;BME280;48653;51.742;-1.256;2023-04-06T10:28:52;100634.06;;;15.54;42.06
62055;BME280;48653;51.742;-1.256;2023-04-06T10:31:24;100637.15;;;15.38;41.78
62055;BME280;48653;51.742;-1.256;2023-04-06T10:33:42;100638.20;;;15.22;42.58
62055;BME280;48653;51.742;-1.256;2023-04-06T10:36:10;100650.15;;;14.44;41.09
62055;BME280;48653;51.742;-1.256;2023-04-06T10:38:36;100651.98;;;14.21;41.92
62055;BME280;48653;51.742;-1.256;2023-04-06T10:41:05;100654.55;;;14.78;41.71
62055;BME280;48653;51.742;-1.256;2023-04-06T10:43:22;100649.10;;;14.76;43.29
62055;BME280;48653;51.742;-1.256;2023-04-06T10:45:54;100648.79;;;14.10;43.80
62055;BME280;48653;51.742;-1.256;2023-04-06T10:48:14;100644.80;;;15.08;42.93
62055;BME280;48653;51.742;-1.256;2023-04-06T10:50:37;100646.62;;;15.57;42.01
62055;BME280;48653;51.742;-1.256;2023-04-06T10:53:02;100652.77;;;14.93;41.67
62055;BME280;48653;51.742;-1.256;2023-04-06T10:55:28;100655.52;;;16.30;41.00
62055;BME280;48653;51.742;-1.256;2023-04-06T10:57:52;100652.30;;;15.60;41.04
62055;BME280;48653;51.742;-1.256;2023-04-06T11:00:18;100655.20;;;14.37;41.85
62055;BME280;48653;51.742;-1.256;2023-04-06T11:02:42;100656.00;;;15.49;41.15
62055;BME280;48653;51.742;-1.256;2023-04-06T11:05:08;100662.51;;;14.54;41.42
62055;BME280;48653;51.742;-1.256;2023-04-06T11:07:33;100664.09;;;13.62;42.44
62055;BME280;48653;51.742;-1.256;2023-04-06T11:09:57;100658.20;;;13.28;42.63
62055;BME280;48653;51.742;-1.256;2023-04-06T11:12:23;100659.91;;;13.99;42.23
62055;BME280;48653;51.742;-1.256;2023-04-06T11:14:53;100664.94;;;13.95;41.98
62055;BME280;48653;51.742;-1.256;2023-04-06T11:17:12;100660.44;;;13.73;41.72
62055;BME280;48653;51.742;-1.256;2023-04-06T11:19:37;100659.95;;;14.12;41.10
62055;BME280;48653;51.742;-1.256;2023-04-06T11:22:07;100658.86;;;14.67;40.21
62055;BME280;48653;51.742;-1.256;2023-04-06T11:24:27;100659.10;;;14.36;40.34
62055;BME280;48653;51.742;-1.256;2023-04-06T11:26:55;100664.06;;;13.49;40.06
62055;BME280;48653;51.742;-1.256;2023-04-06T11:29:19;100665.18;;;13.11;40.32
62055;BME280;48653;51.742;-1.256;2023-04-06T11:31:45;100664.47;;;13.56;40.98
62055;BME280;48653;51.742;-1.256;2023-04-06T11:34:10;100667.48;;;13.61;39.31
62055;BME280;48653;51.742;-1.256;2023-04-06T11:36:33;100670.56;;;13.39;40.91
62055;BME280;48653;51.742;-1.256;2023-04-06T11:38:58;100687.83;;;13.32;43.29
62055;BME280;48653;51.742;-1.256;2023-04-06T11:41:23;100686.17;;;13.11;46.10
62055;BME280;48653;51.742;-1.256;2023-04-06T11:43:48;100685.87;;;12.24;47.49
62055;BME280;48653;51.742;-1.256;2023-04-06T11:46:17;100683.23;;;13.18;48.27
62055;BME280;48653;51.742;-1.256;2023-04-06T11:48:44;100685.48;;;13.56;47.75
62055;BME280;48653;51.742;-1.256;2023-04-06T11:51:03;100681.19;;;13.06;46.35
62055;BME280;48653;51.742;-1.256;2023-04-06T11:53:29;100684.55;;;14.27;45.26
62055;BME280;48653;51.742;-1.256;2023-04-06T11:55:53;100676.81;;;13.81;43.83
62055;BME280;48653;51.742;-1.256;2023-04-06T11:58:18;100672.29;;;13.59;44.61
62055;BME280;48653;51.742;-1.256;2023-04-06T12:00:43;100668.16;;;14.00;43.80
62055;BME280;48653;51.742;-1.256;2023-04-06T12:03:08;100667.32;;;14.01;41.93
62055;BME280;48653;51.742;-1.256;2023-04-06T12:05:34;100664.86;;;14.77;42.63
62055;BME280;48653;51.742;-1.256;2023-04-06T12:07:59;100667.15;;;15.08;40.93
62055;BME280;48653;51.742;-1.256;2023-04-06T12:10:24;100665.73;;;16.04;41.41
62055;BME280;48653;51.742;-1.256;2023-04-06T12:12:49;100666.17;;;16.02;39.50
62055;BME280;48653;51.742;-1.256;2023-04-06T12:15:14;100673.58;;;15.14;38.67
62055;BME280;48653;51.742;-1.256;2023-04-06T12:17:39;100667.63;;;15.76;38.91
62055;BME280;48653;51.742;-1.256;2023-04-06T12:20:05;100679.18;;;15.81;37.99
62055;BME280;48653;51.742;-1.256;2023-04-06T12:22:29;100674.31;;;15.80;37.44
62055;BME280;48653;51.742;-1.256;2023-04-06T12:24:54;100677.38;;;15.01;35.61
62055;BME280;48653;51.742;-1.256;2023-04-06T12:27:19;100676.02;;;16.09;36.61
62055;BME280;48653;51.742;-1.256;2023-04-06T12:29:44;100678.41;;;15.93;35.49
62055;BME280;48653;51.742;-1.256;2023-04-06T12:32:09;100680.05;;;16.54;35.86
62055;BME280;48653;51.742;-1.256;2023-04-06T12:34:34;100676.43;;;15.63;36.11